BIKF/KEF METAR and TAF weather

Enter ICAO airport designator
Station Type Date Time Source
BIKF METAR 2019/10/21 02:30 UTC NOAA

BIKF 210230Z 26017KT 9999 VCSH SCT008 BKN014 07/06 Q0994


Station Type Date Time Source
BIKF Decoded METAR 2019/10/21 02:30 UTC NOAA

Keflavikurflugvollur, Iceland (BIKF) 63-58N 022-36W 54M
Oct 20, 2019 - 10:30 PM EDT / 2019.10.21 0230 UTC
Wind: from the W (260 degrees) at 20 MPH (17 KT):0
Visibility: greater than 7 mile(s):0
Sky conditions: mostly cloudy
Weather: showers in the vicinity
Temperature: 44 F (7 C)
Dew Point: 42 F (6 C)
Relative Humidity: 93%
Pressure (altimeter): 29.35 in. Hg (0994 hPa)
ob: BIKF 210230Z 26017KT 9999 VCSH SCT008 BKN014 07/06 Q0994
cycle: 2

Station Type Date Time Source
BIKF TAF 2019/10/21 03:36 UTC NOAA

TAF TAF BIKF 210132Z 2103/2203 29015KT 9999 -SHRA FEW008 SCT015 BKN030 TX06/2103Z TN02/2123Z
BECMG 2110/2112 01018KT
BECMG 2118/2121 03020G30KT CAVOK

Example: see airport list